LAN4548 SBGR-SBGL
Flight info
| Callsign | LAN4548 |
|---|---|
| Flight time | 0h 32m |
| Altitude | 27000 |
| Route | UREMI UZ42 VUREP |
| Aircraft | A306/H-SDE3FGHIRWY/LB1 |
Departure
| Time | 2026-05-05 12:01 |
|---|---|
| Airport | São Paulo/Guarulhos–Governor André Franco Montoro International Airport (SBGR) |
Arrival
| Time | 2026-05-05 12:33 |
|---|---|
| Airport | Rio Galeão – Tom Jobim International Airport (SBGL) |
| Time | Latitude | Longitude | Altitude | Speed | Heading |
|---|---|---|---|---|---|
| 2026-05-05 11:40 | -23.42899 | -46.47934 | 2471 ft | 0 kts | 302° |
| 2026-05-05 11:52 | -23.42909 | -46.47915 | 2471 ft | 4 kts | 274° |
| 2026-05-05 11:52 | -23.42915 | -46.47906 | 2471 ft | 4 kts | 192° |
| 2026-05-05 11:52 | -23.42905 | -46.47908 | 2471 ft | 4 kts | 175° |
| 2026-05-05 11:52 | -23.42890 | -46.47909 | 2474 ft | 4 kts | 245° |
| 2026-05-05 11:53 | -23.42889 | -46.47905 | 2471 ft | 4 kts | 278° |
| 2026-05-05 11:53 | -23.42888 | -46.47879 | 2472 ft | 4 kts | 239° |
| 2026-05-05 11:53 | -23.42871 | -46.47859 | 2471 ft | 4 kts | 207° |
| 2026-05-05 11:53 | -23.42846 | -46.47849 | 2471 ft | 4 kts | 183° |
| 2026-05-05 11:54 | -23.42832 | -46.47849 | 2471 ft | 0 kts | 169° |
| 2026-05-05 11:55 | -23.42838 | -46.47848 | 2471 ft | 5 kts | 169° |
| 2026-05-05 11:56 | -23.42905 | -46.47836 | 2470 ft | 13 kts | 181° |
| 2026-05-05 11:56 | -23.42973 | -46.47925 | 2473 ft | 18 kts | 254° |
| 2026-05-05 11:56 | -23.43008 | -46.48043 | 2472 ft | 16 kts | 251° |
| 2026-05-05 11:56 | -23.43040 | -46.48154 | 2474 ft | 14 kts | 258° |
| 2026-05-05 11:57 | -23.43052 | -46.48264 | 2471 ft | 16 kts | 264° |
| 2026-05-05 11:57 | -23.43069 | -46.48381 | 2476 ft | 15 kts | 243° |
| 2026-05-05 11:57 | -23.43153 | -46.48411 | 2473 ft | 12 kts | 175° |
| 2026-05-05 11:57 | -23.43228 | -46.48392 | 2479 ft | 10 kts | 163° |
| 2026-05-05 11:58 | -23.43292 | -46.48371 | 2475 ft | 8 kts | 163° |
| 2026-05-05 11:58 | -23.43302 | -46.48369 | 2476 ft | 0 kts | 165° |
| 2026-05-05 11:58 | -23.43304 | -46.48368 | 2475 ft | 3 kts | 166° |
| 2026-05-05 11:59 | -23.43382 | -46.48340 | 2471 ft | 18 kts | 145° |
| 2026-05-05 11:59 | -23.43399 | -46.48225 | 2469 ft | 8 kts | 73° |
| 2026-05-05 11:59 | -23.43399 | -46.48223 | 2473 ft | 0 kts | 73° |
| 2026-05-05 11:59 | -23.43399 | -46.48222 | 2473 ft | 1 kts | 73° |
| 2026-05-05 12:00 | -23.43337 | -46.47994 | 2471 ft | 65 kts | 73° |
| 2026-05-05 12:00 | -23.43149 | -46.47298 | 2468 ft | 124 kts | 73° |
| 2026-05-05 12:00 | -23.42861 | -46.46220 | 2498 ft | 171 kts | 73° |
| 2026-05-05 12:00 | -23.42515 | -46.44906 | 2986 ft | 189 kts | 74° |
| 2026-05-05 12:01 | -23.42107 | -46.43510 | 3641 ft | 203 kts | 68° |
| 2026-05-05 12:01 | -23.41603 | -46.41997 | 4173 ft | 220 kts | 69° |
| 2026-05-05 12:01 | -23.41119 | -46.40376 | 4813 ft | 229 kts | 72° |
| 2026-05-05 12:01 | -23.40643 | -46.38686 | 5518 ft | 238 kts | 72° |
| 2026-05-05 12:02 | -23.40232 | -46.36899 | 6119 ft | 252 kts | 83° |
| 2026-05-05 12:02 | -23.40355 | -46.34953 | 6656 ft | 267 kts | 105° |
| 2026-05-05 12:02 | -23.40944 | -46.32980 | 7148 ft | 278 kts | 111° |
| 2026-05-05 12:02 | -23.41622 | -46.30989 | 7615 ft | 282 kts | 111° |
| 2026-05-05 12:03 | -23.42302 | -46.28983 | 8088 ft | 284 kts | 111° |
| 2026-05-05 12:03 | -23.42978 | -46.26958 | 8574 ft | 285 kts | 110° |
| 2026-05-05 12:03 | -23.43637 | -46.24921 | 9160 ft | 286 kts | 108° |
| 2026-05-05 12:03 | -23.43974 | -46.23498 | 9638 ft | 288 kts | 103° |
| 2026-05-05 12:04 | -23.44369 | -46.21361 | 10321 ft | 290 kts | 102° |
| 2026-05-05 12:04 | -23.44753 | -46.19140 | 10747 ft | 309 kts | 101° |
| 2026-05-05 12:04 | -23.45163 | -46.16760 | 11076 ft | 331 kts | 101° |
| 2026-05-05 12:04 | -23.45601 | -46.14224 | 11391 ft | 350 kts | 101° |
| 2026-05-05 12:05 | -23.46062 | -46.11549 | 11697 ft | 367 kts | 101° |
| 2026-05-05 12:05 | -23.46541 | -46.08785 | 12253 ft | 375 kts | 101° |
| 2026-05-05 12:05 | -23.47028 | -46.05970 | 12878 ft | 381 kts | 101° |
| 2026-05-05 12:05 | -23.47520 | -46.03124 | 13515 ft | 385 kts | 101° |
| 2026-05-05 12:06 | -23.48017 | -46.00244 | 14161 ft | 389 kts | 101° |
| 2026-05-05 12:06 | -23.48519 | -45.97333 | 14730 ft | 393 kts | 101° |
| 2026-05-05 12:06 | -23.48927 | -45.94374 | 15271 ft | 398 kts | 95° |
| 2026-05-05 12:06 | -23.48743 | -45.91352 | 15816 ft | 404 kts | 80° |
| 2026-05-05 12:07 | -23.48080 | -45.88363 | 16377 ft | 408 kts | 76° |
| 2026-05-05 12:07 | -23.47330 | -45.85358 | 16913 ft | 413 kts | 76° |
| 2026-05-05 12:07 | -23.46571 | -45.82329 | 17441 ft | 417 kts | 76° |
| 2026-05-05 12:07 | -23.45808 | -45.79256 | 17976 ft | 421 kts | 76° |
| 2026-05-05 12:08 | -23.45044 | -45.76164 | 18492 ft | 425 kts | 76° |
| 2026-05-05 12:08 | -23.44274 | -45.73040 | 18925 ft | 429 kts | 76° |
| 2026-05-05 12:08 | -23.43498 | -45.69886 | 19393 ft | 432 kts | 76° |
| 2026-05-05 12:08 | -23.42718 | -45.66716 | 19830 ft | 435 kts | 76° |
| 2026-05-05 12:09 | -23.41935 | -45.63531 | 20275 ft | 438 kts | 77° |
| 2026-05-05 12:09 | -23.41143 | -45.60318 | 20728 ft | 440 kts | 77° |
| 2026-05-05 12:09 | -23.40346 | -45.57088 | 21163 ft | 443 kts | 77° |
| 2026-05-05 12:09 | -23.39545 | -45.53844 | 21587 ft | 446 kts | 77° |
| 2026-05-05 12:10 | -23.38749 | -45.50570 | 22030 ft | 448 kts | 78° |
| 2026-05-05 12:10 | -23.38007 | -45.47269 | 22453 ft | 450 kts | 79° |
| 2026-05-05 12:10 | -23.37287 | -45.43901 | 22883 ft | 453 kts | 79° |
| 2026-05-05 12:10 | -23.36593 | -45.40585 | 23300 ft | 456 kts | 79° |
| 2026-05-05 12:11 | -23.35880 | -45.37171 | 23725 ft | 458 kts | 80° |
| 2026-05-05 12:11 | -23.35169 | -45.33783 | 24085 ft | 461 kts | 80° |
| 2026-05-05 12:11 | -23.34446 | -45.30365 | 24409 ft | 465 kts | 79° |
| 2026-05-05 12:11 | -23.33712 | -45.26929 | 24734 ft | 468 kts | 79° |
| 2026-05-05 12:12 | -23.32972 | -45.23475 | 25061 ft | 470 kts | 79° |
| 2026-05-05 12:12 | -23.32225 | -45.20000 | 25381 ft | 473 kts | 79° |
| 2026-05-05 12:12 | -23.31482 | -45.16551 | 25700 ft | 475 kts | 79° |
| 2026-05-05 12:12 | -23.30713 | -45.12992 | 26009 ft | 478 kts | 79° |
| 2026-05-05 12:13 | -23.29951 | -45.09459 | 26324 ft | 481 kts | 79° |
| 2026-05-05 12:13 | -23.29187 | -45.05913 | 26607 ft | 483 kts | 79° |
| 2026-05-05 12:13 | -23.28424 | -45.02383 | 26889 ft | 486 kts | 78° |
| 2026-05-05 12:13 | -23.27650 | -44.98799 | 27154 ft | 489 kts | 78° |
| 2026-05-05 12:14 | -23.26873 | -44.95215 | 27219 ft | 481 kts | 78° |
| 2026-05-05 12:14 | -23.26122 | -44.91762 | 27218 ft | 460 kts | 78° |
| 2026-05-05 12:14 | -23.25398 | -44.88443 | 27222 ft | 444 kts | 78° |
| 2026-05-05 12:14 | -23.24688 | -44.85188 | 27223 ft | 442 kts | 79° |
| 2026-05-05 12:15 | -23.23981 | -44.81940 | 27215 ft | 442 kts | 78° |
| 2026-05-05 12:15 | -23.23275 | -44.78682 | 27221 ft | 443 kts | 78° |
| 2026-05-05 12:15 | -23.22570 | -44.75432 | 27208 ft | 439 kts | 78° |
| 2026-05-05 12:15 | -23.21872 | -44.72237 | 27210 ft | 430 kts | 78° |
| 2026-05-05 12:16 | -23.21183 | -44.69091 | 27213 ft | 427 kts | 78° |
| 2026-05-05 12:16 | -23.20497 | -44.65952 | 27213 ft | 426 kts | 78° |
| 2026-05-05 12:16 | -23.19811 | -44.62819 | 27208 ft | 426 kts | 78° |
| 2026-05-05 12:16 | -23.19124 | -44.59684 | 27210 ft | 426 kts | 78° |
| 2026-05-05 12:17 | -23.18428 | -44.56576 | 27210 ft | 427 kts | 76° |
| 2026-05-05 12:17 | -23.17395 | -44.53555 | 27208 ft | 428 kts | 68° |
| 2026-05-05 12:17 | -23.16132 | -44.50623 | 27125 ft | 425 kts | 66° |
| 2026-05-05 12:17 | -23.14856 | -44.47748 | 26889 ft | 417 kts | 66° |
| 2026-05-05 12:18 | -23.13618 | -44.44962 | 26413 ft | 416 kts | 66° |
| 2026-05-05 12:18 | -23.12338 | -44.42074 | 25756 ft | 419 kts | 66° |
| 2026-05-05 12:18 | -23.11074 | -44.39216 | 25169 ft | 420 kts | 66° |
| 2026-05-05 12:18 | -23.09823 | -44.36386 | 24593 ft | 421 kts | 66° |
| 2026-05-05 12:19 | -23.08537 | -44.33475 | 23979 ft | 423 kts | 66° |
| 2026-05-05 12:19 | -23.07278 | -44.30628 | 23297 ft | 424 kts | 66° |
| 2026-05-05 12:19 | -23.06006 | -44.27749 | 22680 ft | 422 kts | 66° |
| 2026-05-05 12:19 | -23.04741 | -44.24890 | 22144 ft | 417 kts | 66° |
| 2026-05-05 12:20 | -23.03492 | -44.22073 | 21439 ft | 411 kts | 66° |
| 2026-05-05 12:20 | -23.02266 | -44.19307 | 20822 ft | 403 kts | 66° |
| 2026-05-05 12:20 | -23.01063 | -44.16593 | 20224 ft | 394 kts | 66° |
| 2026-05-05 12:20 | -22.99878 | -44.13919 | 19631 ft | 383 kts | 65° |
| 2026-05-05 12:21 | -22.98754 | -44.11382 | 19057 ft | 372 kts | 65° |
| 2026-05-05 12:21 | -22.97647 | -44.08887 | 18487 ft | 363 kts | 65° |
| 2026-05-05 12:21 | -22.96563 | -44.06447 | 17888 ft | 355 kts | 65° |
| 2026-05-05 12:21 | -22.95505 | -44.04068 | 17336 ft | 346 kts | 65° |
| 2026-05-05 12:22 | -22.94466 | -44.01732 | 16821 ft | 344 kts | 66° |
| 2026-05-05 12:22 | -22.93421 | -43.99383 | 16277 ft | 348 kts | 65° |
| 2026-05-05 12:22 | -22.92367 | -43.97016 | 15725 ft | 351 kts | 66° |
| 2026-05-05 12:22 | -22.91304 | -43.94626 | 15177 ft | 352 kts | 66° |
| 2026-05-05 12:23 | -22.90235 | -43.92227 | 14612 ft | 353 kts | 66° |
| 2026-05-05 12:23 | -22.89170 | -43.89835 | 14030 ft | 352 kts | 66° |
| 2026-05-05 12:23 | -22.88104 | -43.87447 | 13401 ft | 350 kts | 66° |
| 2026-05-05 12:23 | -22.87054 | -43.85102 | 12857 ft | 341 kts | 66° |
| 2026-05-05 12:24 | -22.86038 | -43.82827 | 12300 ft | 330 kts | 66° |
| 2026-05-05 12:24 | -22.85050 | -43.80613 | 11777 ft | 323 kts | 66° |
| 2026-05-05 12:24 | -22.84078 | -43.78437 | 11257 ft | 317 kts | 66° |
| 2026-05-05 12:24 | -22.83135 | -43.76331 | 10776 ft | 312 kts | 66° |
| 2026-05-05 12:25 | -22.82220 | -43.74287 | 10643 ft | 293 kts | 66° |
| 2026-05-05 12:25 | -22.81361 | -43.72327 | 10565 ft | 283 kts | 69° |
| 2026-05-05 12:25 | -22.80731 | -43.70286 | 10081 ft | 290 kts | 77° |
| 2026-05-05 12:25 | -22.80227 | -43.68143 | 9531 ft | 296 kts | 78° |
| 2026-05-05 12:26 | -22.79737 | -43.65982 | 9160 ft | 293 kts | 78° |
| 2026-05-05 12:26 | -22.79246 | -43.63842 | 8808 ft | 293 kts | 78° |
| 2026-05-05 12:26 | -22.78752 | -43.61700 | 8360 ft | 294 kts | 78° |
| 2026-05-05 12:26 | -22.78254 | -43.59559 | 7968 ft | 293 kts | 77° |
| 2026-05-05 12:27 | -22.77538 | -43.57505 | 7592 ft | 293 kts | 61° |
| 2026-05-05 12:27 | -22.76112 | -43.55939 | 7260 ft | 294 kts | 31° |
| 2026-05-05 12:27 | -22.74258 | -43.55040 | 6923 ft | 292 kts | 23° |
| 2026-05-05 12:27 | -22.72337 | -43.54268 | 6441 ft | 296 kts | 18° |
| 2026-05-05 12:28 | -22.70414 | -43.53525 | 6248 ft | 288 kts | 22° |
| 2026-05-05 12:28 | -22.68593 | -43.52644 | 6224 ft | 295 kts | 27° |
| 2026-05-05 12:28 | -22.66973 | -43.51231 | 6255 ft | 316 kts | 54° |
| 2026-05-05 12:28 | -22.66085 | -43.48969 | 6251 ft | 341 kts | 81° |
| 2026-05-05 12:29 | -22.66068 | -43.46488 | 6283 ft | 320 kts | 103° |
| 2026-05-05 12:29 | -22.67015 | -43.44355 | 6226 ft | 326 kts | 131° |
| 2026-05-05 12:29 | -22.68794 | -43.42699 | 6257 ft | 350 kts | 144° |
| 2026-05-05 12:29 | -22.70725 | -43.41139 | 6030 ft | 335 kts | 143° |
| 2026-05-05 12:30 | -22.72456 | -43.39728 | 5545 ft | 288 kts | 141° |
| 2026-05-05 12:30 | -22.73770 | -43.38223 | 4727 ft | 265 kts | 126° |
| 2026-05-05 12:30 | -22.74643 | -43.36560 | 3996 ft | 247 kts | 114° |
| 2026-05-05 12:30 | -22.75392 | -43.34966 | 3506 ft | 227 kts | 120° |
| 2026-05-05 12:31 | -22.76295 | -43.33607 | 2878 ft | 223 kts | 131° |
| 2026-05-05 12:31 | -22.77258 | -43.32338 | 2505 ft | 211 kts | 127° |
| 2026-05-05 12:31 | -22.78152 | -43.31108 | 1947 ft | 206 kts | 128° |
| 2026-05-05 12:31 | -22.78971 | -43.29866 | 1545 ft | 196 kts | 123° |
| 2026-05-05 12:32 | -22.79690 | -43.28694 | 1198 ft | 182 kts | 126° |
| 2026-05-05 12:32 | -22.80431 | -43.27607 | 720 ft | 177 kts | 126° |
| 2026-05-05 12:32 | -22.81133 | -43.26532 | 226 ft | 172 kts | 124° |
| 2026-05-05 12:32 | -22.81794 | -43.25537 | 32 ft | 152 kts | 124° |
| 2026-05-05 12:33 | -22.82319 | -43.24743 | 28 ft | 105 kts | 119° |
| 2026-05-05 12:33 | -22.82589 | -43.24343 | 28 ft | 29 kts | 124° |
| 2026-05-05 12:33 | -22.82611 | -43.24227 | 28 ft | 13 kts | 64° |
| 2026-05-05 12:33 | -22.82552 | -43.24164 | 27 ft | 10 kts | 5° |
| 2026-05-05 12:34 | -22.82467 | -43.24241 | 27 ft | 18 kts | 307° |
| 2026-05-05 12:34 | -22.82395 | -43.24354 | 30 ft | 18 kts | 304° |
| 2026-05-05 12:34 | -22.82322 | -43.24464 | 26 ft | 11 kts | 315° |
| 2026-05-05 12:34 | -22.82307 | -43.24457 | 29 ft | 2 kts | 66° |
| 2026-05-05 12:35 | -22.82299 | -43.24415 | 26 ft | 9 kts | 62° |
| 2026-05-05 12:35 | -22.82263 | -43.24372 | 29 ft | 10 kts | 42° |
| 2026-05-05 12:35 | -22.82197 | -43.24317 | 27 ft | 13 kts | 36° |
| 2026-05-05 12:35 | -22.82132 | -43.24302 | 27 ft | 13 kts | 332° |
| 2026-05-05 12:36 | -22.82047 | -43.24417 | 27 ft | 20 kts | 300° |
| 2026-05-05 12:36 | -22.81968 | -43.24539 | 27 ft | 19 kts | 307° |
| 2026-05-05 12:36 | -22.81869 | -43.24586 | 27 ft | 15 kts | 356° |
| 2026-05-05 12:36 | -22.81750 | -43.24661 | 28 ft | 24 kts | 321° |
| 2026-05-05 12:37 | -22.81628 | -43.24793 | 28 ft | 24 kts | 305° |
| 2026-05-05 12:37 | -22.81534 | -43.24938 | 28 ft | 22 kts | 304° |
| 2026-05-05 12:37 | -22.81442 | -43.25070 | 28 ft | 21 kts | 308° |
| 2026-05-05 12:37 | -22.81343 | -43.25166 | 28 ft | 22 kts | 308° |
| 2026-05-05 12:38 | -22.81245 | -43.25301 | 28 ft | 23 kts | 316° |
| 2026-05-05 12:38 | -22.81123 | -43.25376 | 28 ft | 15 kts | 343° |
| 2026-05-05 12:38 | -22.81027 | -43.25384 | 28 ft | 8 kts | 9° |
| 2026-05-05 12:38 | -22.81004 | -43.25360 | 28 ft | 3 kts | 74° |
| 2026-05-05 12:39 | -22.81002 | -43.25336 | 28 ft | 4 kts | 82° |
| 2026-05-05 12:39 | -22.81000 | -43.25314 | 28 ft | 1 kts | 86° |